»·PEaware :: N1MJ KSAT-KELP

N1MJ :: KSAT-KELP

FLIGHT INFORMATION

Flight Status: Arrived
Operator: Privately registered:
United States
More flights under this callsign
Pilot: Matthew M. (27032)
Aircraft: Cessna 525C Citation CJ4
(C25C)
More flights by this aircraft type
Origin: KSAT San Antonio Intl
United States
Destination: KELP El Paso Intl
United States
More flights between these airports :: More routes between these airports
Route: ALISS5 FST TXSAS BEAHR3
File this flight plan on PilotEdge
Remarks:
Altitude:
(Current/Filed)
40,000ft
Speed:
(Current/Filed)
410kts
Departed: 30-Aug-21 09:58 AM
Arrived: 30-Aug-21 10:42 AM
Distance/Time
Traveled:
430nm/0:44
Distance/Time
To Go:
Arrived

Flight Plot

Page will automatically refresh every two minutes.

Flight plan parsing failed; only flown route is shown


Map Options




Map Legend


Flown Route
Filed Route
Departure Airport
Arrival Airport
Navaid (VOR, NDB)
Fix

Horizontal Profiles

Position Reports

Time Latitude Longitude Heading Altitude Ground
Speed
30-Aug-21 09:56 30.751022 -101.851743 282 41705ft 421kts
30-Aug-21 09:57 30.775502 -101.985304 282 41699ft 423kts
30-Aug-21 09:59 30.799921 -102.119350 281 41696ft 424kts
30-Aug-21 10:00 30.824287 -102.253919 281 41696ft 425kts
30-Aug-21 10:01 30.848541 -102.388790 281 41709ft 426kts
30-Aug-21 10:02 30.872698 -102.523845 281 41710ft 426kts
30-Aug-21 10:03 30.896696 -102.658898 281 41709ft 427kts
30-Aug-21 10:04 30.920629 -102.794444 281 41707ft 427kts
30-Aug-21 10:05 30.944445 -102.930154 281 41708ft 428kts
30-Aug-21 10:06 30.981178 -103.061326 293 41706ft 428kts
30-Aug-21 10:07 31.026312 -103.189888 291 41704ft 428kts
30-Aug-21 10:08 31.071459 -103.318803 291 41700ft 429kts
30-Aug-21 10:09 31.116098 -103.447832 291 41697ft 429kts
30-Aug-21 10:10 31.160388 -103.576913 291 41695ft 429kts
30-Aug-21 10:11 31.204693 -103.706354 291 41691ft 429kts
30-Aug-21 10:12 31.248826 -103.835848 290 41688ft 429kts
30-Aug-21 10:13 31.292830 -103.965407 290 41685ft 429kts
30-Aug-21 10:14 31.336603 -104.094866 290 41683ft 429kts
30-Aug-21 10:15 31.380329 -104.224672 290 41212ft 429kts
30-Aug-21 10:16 31.424254 -104.355585 290 38876ft 433kts
30-Aug-21 10:17 31.459398 -104.489113 275 36653ft 428kts
30-Aug-21 10:18 31.471739 -104.627177 277 34373ft 423kts
30-Aug-21 10:19 31.485633 -104.763720 276 31973ft 427kts
30-Aug-21 10:20 31.500203 -104.903450 276 29470ft 434kts
30-Aug-21 10:21 31.514469 -105.043743 276 27081ft 433kts
30-Aug-21 10:22 31.528366 -105.182538 276 24858ft 426kts
30-Aug-21 10:23 31.542045 -105.320385 276 22364ft 424kts
30-Aug-21 10:23 31.553072 -105.432746 276 20281ft 407kts
30-Aug-21 10:24 31.565556 -105.561303 276 17983ft 388kts
30-Aug-21 10:26 31.574083 -105.704871 273 15593ft 370kts
30-Aug-21 10:26 31.579079 -105.804157 273 13915ft 362kts
30-Aug-21 10:27 31.584858 -105.921307 273 11903ft 357kts
30-Aug-21 10:28 31.591985 -106.029131 292 9881ft 305kts
30-Aug-21 10:30 31.645650 -106.118349 308 7522ft 274kts
30-Aug-21 10:31 31.693112 -106.170051 3 7144ft 205kts
30-Aug-21 10:32 31.738504 -106.141934 43 7124ft 184kts
30-Aug-21 10:32 31.770538 -106.110245 31 7113ft 179kts
30-Aug-21 10:33 31.806681 -106.128678 283 7057ft 185kts
30-Aug-21 10:34 31.811510 -106.193711 273 6600ft 199kts
30-Aug-21 10:35 31.814610 -106.258177 273 6219ft 208kts
30-Aug-21 10:36 31.810280 -106.326920 240 5658ft 211kts
30-Aug-21 10:37 31.783656 -106.387408 235 5312ft 208kts
30-Aug-21 10:38 31.770848 -106.445000 302 4851ft 169kts
30-Aug-21 10:39 31.799911 -106.427758 69 4730ft 142kts
30-Aug-21 10:40 31.802035 -106.388219 91 3938ft 103kts
30-Aug-21 10:41 31.801135 -106.370883 105 3949ft 16kts
30-Aug-21 10:42 31.799593 -106.370628 217 3952ft 5kts
30-Aug-21 10:43 31.799750 -106.375426 273 3946ft 18kts
30-Aug-21 10:44 31.797951 -106.377264 206 3943ft 5kts
30-Aug-21 10:45 31.797838 -106.377515 254 3942ft 0kts
30-Aug-21 10:46 31.797838 -106.377515 254 3942ft 0kts
30-Aug-21 10:47 31.797838 -106.377515 254 3942ft 0kts
30-Aug-21 10:48 31.797838 -106.377515 254 3942ft 0kts
30-Aug-21 10:49 31.797838 -106.377515 254 3942ft 0kts
30-Aug-21 10:50 31.797838 -106.377515 254 3942ft 0kts
30-Aug-21 10:51 31.797838 -106.377515 254 3942ft 0kts
30-Aug-21 10:52 31.797838 -106.377515 254 3942ft 0kts
30-Aug-21 10:53 31.797838 -106.377515 254 3942ft 0kts
30-Aug-21 10:54 31.797838 -106.377515 254 3942ft 0kts

Navigation Log

Ident Type
Flight plan parsing failed, navigation log unavailable